Time;durP1;ratioP1;P1;durP2;ratioP2;P2;SDS_P1;SDS_P2;PMS_P1;PMS_P2;Temp;Humidity;BMP_temperature;BMP_pressure;BME280_temperature;BME280_humidity;BME280_pressure;Samples;Min_cycle;Max_cycle;Signal;HPM_P1;HPM_P2
2021/05/10 00:02:15;;;;;;;3.67;1.45;;;;;;;13.30;43.55;100148.13;4338527;32;35712;-86
2021/05/10 00:04:43;;;;;;;2.05;1.30;;;;;;;13.66;43.47;100144.56;4363584;32;34812;-87
2021/05/10 00:07:10;;;;;;;2.55;1.65;;;;;;;13.63;43.37;100139.44;4349960;32;34593;-86
2021/05/10 00:13:04;;;;;;;3.45;1.10;;;;;;;13.35;43.60;100148.78;4377665;32;33344;-85
2021/05/10 00:15:31;;;;;;;3.42;1.62;;;;;;;13.38;43.22;100142.44;4377385;32;33193;-85
2021/05/10 00:18:02;;;;;;;1.85;1.12;;;;;;;13.41;44.31;100143.16;4364651;32;32791;-86
2021/05/10 00:20:35;;;;;;;5.67;1.40;;;;;;;13.59;44.28;100146.69;4357494;32;35253;-87
2021/05/10 00:23:04;;;;;;;2.00;1.10;;;;;;;13.31;46.55;100147.19;4351268;32;34195;-87
2021/05/10 00:25:31;;;;;;;1.65;1.00;;;;;;;13.48;45.52;100147.22;4364518;32;34139;-87
2021/05/10 00:27:59;;;;;;;2.97;1.37;;;;;;;13.25;46.94;100152.81;4351661;32;33360;-87
2021/05/10 00:30:26;;;;;;;4.40;1.33;;;;;;;13.06;46.74;100145.72;4377285;32;33694;-85
2021/05/10 00:32:57;;;;;;;3.00;1.60;;;;;;;13.08;45.72;100141.19;4353942;32;33300;-86
2021/05/10 00:35:25;;;;;;;1.60;1.30;;;;;;;13.17;46.40;100150.50;4362996;32;32286;-86
2021/05/10 00:37:53;;;;;;;1.95;1.40;;;;;;;13.12;46.94;100143.69;4352417;32;33623;-86
2021/05/10 00:40:23;;;;;;;4.30;1.60;;;;;;;12.84;47.31;100146.81;4374495;32;33007;-86
2021/05/10 00:42:51;;;;;;;4.62;1.58;;;;;;;13.14;46.34;100147.97;4351280;32;34451;-86
2021/05/10 00:45:18;;;;;;;2.60;1.27;;;;;;;12.67;48.42;100155.53;4363204;32;33150;-86
2021/05/10 00:47:46;;;;;;;3.87;1.20;;;;;;;12.90;47.88;100143.88;4338820;32;34182;-86
2021/05/10 00:50:14;;;;;;;3.65;1.60;;;;;;;12.65;48.84;100152.97;4363582;32;35184;-86
2021/05/10 00:52:41;;;;;;;2.05;1.20;;;;;;;12.68;48.95;100146.69;4375931;32;34572;-86
2021/05/10 00:55:10;;;;;;;1.42;1.27;;;;;;;12.69;48.88;100146.59;4363626;32;34296;-86
2021/05/10 00:57:55;;;;;;;4.47;1.75;;;;;;;12.71;48.97;100141.22;4354134;32;34642;-86
2021/05/10 01:00:26;;;;;;;1.70;1.05;;;;;;;12.34;49.40;100142.06;4364199;32;35625;-86
2021/05/10 01:03:06;;;;;;;3.50;1.62;;;;;;;12.45;49.71;100137.16;4363361;32;34059;-85
2021/05/10 01:05:36;;;;;;;1.48;1.10;;;;;;;12.39;49.87;100140.94;4355156;32;34944;-85
2021/05/10 01:08:07;;;;;;;3.87;1.37;;;;;;;12.47;49.22;100136.13;4372484;32;33722;-85
2021/05/10 01:10:35;;;;;;;3.12;1.50;;;;;;;12.40;49.63;100131.22;4375680;32;33220;-85
2021/05/10 01:13:03;;;;;;;2.47;1.12;;;;;;;12.40;49.22;100132.06;4375658;32;33236;-85
2021/05/10 01:15:30;;;;;;;4.40;1.20;;;;;;;12.38;49.76;100131.25;4375930;32;33105;-85
2021/05/10 01:17:58;;;;;;;2.12;1.10;;;;;;;11.93;50.65;100135.06;4374807;32;32406;-86
2021/05/10 01:20:26;;;;;;;2.37;1.10;;;;;;;12.20;50.32;100129.44;4361974;32;34939;-86
2021/05/10 01:22:56;;;;;;;3.67;1.48;;;;;;;12.46;48.95;100125.63;4372643;32;33960;-85
2021/05/10 01:25:26;;;;;;;2.05;1.00;;;;;;;12.23;49.78;100121.38;4388924;32;33972;-85
2021/05/10 01:27:53;;;;;;;2.00;1.17;;;;;;;12.18;50.11;100120.72;4370075;32;34548;-85
2021/05/10 01:30:22;;;;;;;3.05;1.33;;;;;;;12.21;50.27;100110.00;4376237;32;35497;-85
2021/05/10 01:32:52;;;;;;;4.20;1.33;;;;;;;12.00;49.77;100111.81;4388487;32;33858;-85
2021/05/10 01:35:23;;;;;;;4.53;1.60;;;;;;;11.86;50.79;100109.78;4375517;32;33133;-85
2021/05/10 01:37:51;;;;;;;3.08;1.10;;;;;;;12.24;48.47;100109.84;4375286;32;32101;-85
2021/05/10 01:40:18;;;;;;;2.83;1.65;;;;;;;12.30;48.71;100115.75;4375346;32;34441;-85
2021/05/10 01:42:45;;;;;;;3.35;1.62;;;;;;;12.07;49.63;100112.41;4375494;32;32323;-85
2021/05/10 01:45:14;;;;;;;3.37;1.40;;;;;;;12.07;49.96;100117.72;4363318;32;31985;-85
2021/05/10 01:47:44;;;;;;;2.60;1.20;;;;;;;12.21;49.53;100115.31;4375949;32;34361;-85
2021/05/10 01:50:13;;;;;;;3.75;1.70;;;;;;;12.05;49.73;100118.63;4371832;32;33414;-85
2021/05/10 01:52:41;;;;;;;5.55;1.77;;;;;;;11.97;50.61;100107.53;4361459;32;33576;-86
2021/05/10 01:55:09;;;;;;;4.93;1.52;;;;;;;11.87;50.52;100111.53;4376281;32;33174;-86
2021/05/10 01:57:39;;;;;;;2.05;1.25;;;;;;;11.93;50.81;100099.78;4361666;32;35443;-86
2021/05/10 02:00:12;;;;;;;2.53;1.65;;;;;;;12.04;49.91;100098.37;4362158;32;33805;-86
2021/05/10 02:02:39;;;;;;;2.70;1.30;;;;;;;11.99;50.56;100094.22;4351738;32;33702;-86
2021/05/10 02:05:12;;;;;;;2.00;1.60;;;;;;;12.07;50.12;100104.47;4348739;32;32868;-86
2021/05/10 02:07:46;;;;;;;4.12;1.40;;;;;;;11.76;51.36;100093.41;4365308;32;33381;-85
2021/05/10 02:10:15;;;;;;;2.42;1.50;;;;;;;12.04;50.27;100097.53;4350892;32;34850;-85
2021/05/10 02:12:57;;;;;;;3.08;1.77;;;;;;;11.98;50.63;100103.94;4363461;32;34840;-85
2021/05/10 02:15:27;;;;;;;3.95;1.75;;;;;;;11.88;51.10;100094.72;4372991;32;33307;-85
2021/05/10 02:17:55;;;;;;;1.90;1.60;;;;;;;11.79;51.21;100098.59;4351441;32;34566;-85
2021/05/10 02:20:23;;;;;;;2.30;1.30;;;;;;;11.82;51.05;100102.94;4356109;32;34268;-85
2021/05/10 02:22:51;;;;;;;2.65;1.70;;;;;;;12.03;50.39;100107.25;4350578;32;33692;-85
2021/05/10 02:25:21;;;;;;;5.03;1.52;;;;;;;11.84;51.04;100105.50;4374879;32;34559;-84
2021/05/10 02:27:49;;;;;;;1.95;1.75;;;;;;;12.01;50.47;100103.81;4361359;32;34679;-85
2021/05/10 02:30:17;;;;;;;3.62;1.60;;;;;;;11.96;51.55;100107.56;4349514;32;34742;-84
2021/05/10 02:32:45;;;;;;;2.92;1.75;;;;;;;11.84;52.14;100109.00;4374715;32;34253;-84
2021/05/10 02:35:14;;;;;;;6.25;1.87;;;;;;;11.86;51.66;100109.78;4362959;32;33722;-85
2021/05/10 02:37:42;;;;;;;3.05;1.60;;;;;;;11.68;52.50;100103.50;4362749;32;34459;-84
2021/05/10 02:40:10;;;;;;;3.90;1.90;;;;;;;11.65;52.54;100105.41;4374992;32;33523;-84
2021/05/10 02:42:37;;;;;;;4.25;1.58;;;;;;;11.83;52.08;100109.06;4362659;32;33327;-84
2021/05/10 02:45:06;;;;;;;5.35;2.03;;;;;;;11.78;52.26;100103.94;4361644;32;32962;-84
2021/05/10 02:47:35;;;;;;;4.18;1.83;;;;;;;11.60;52.63;100108.25;4350068;32;35251;-85
2021/05/10 02:50:08;;;;;;;2.65;2.05;;;;;;;11.44;53.58;100112.44;4368237;32;33548;-85
2021/05/10 02:52:36;;;;;;;2.42;2.15;;;;;;;11.64;53.09;100119.56;4349974;32;33628;-86
2021/05/10 02:55:04;;;;;;;4.75;1.60;;;;;;;11.60;52.80;100117.97;4368066;32;32324;-85
2021/05/10 02:57:32;;;;;;;3.87;2.53;;;;;;;11.83;52.03;100117.88;4375430;32;34557;-86
2021/05/10 03:00:00;;;;;;;6.70;1.80;;;;;;;11.83;52.59;100117.88;4364448;32;33651;-86
2021/05/10 03:02:27;;;;;;;5.30;1.70;;;;;;;11.83;52.64;100125.81;4339831;32;34535;-86
2021/05/10 03:04:55;;;;;;;3.12;1.98;;;;;;;11.53;53.71;100127.94;4364702;32;33646;-86
2021/05/10 03:07:23;;;;;;;5.47;2.00;;;;;;;11.33;54.44;100126.13;4364680;32;33205;-86
2021/05/10 03:09:51;;;;;;;3.42;1.92;;;;;;;11.15;55.06;100122.44;4358411;32;35474;-86
2021/05/10 03:12:18;;;;;;;4.45;2.20;;;;;;;11.31;54.42;100120.06;4374495;32;33637;-86
2021/05/10 03:14:46;;;;;;;3.78;1.65;;;;;;;11.37;54.15;100117.16;4376597;32;33663;-86
2021/05/10 03:17:13;;;;;;;4.30;1.70;;;;;;;11.59;53.31;100108.31;4378153;32;33809;-86
2021/05/10 03:19:41;;;;;;;2.50;1.98;;;;;;;11.31;54.26;100121.84;4364031;32;34346;-86
2021/05/10 03:22:08;;;;;;;6.90;2.20;;;;;;;11.27;54.39;100116.66;4351862;32;33421;-85
2021/05/10 03:24:36;;;;;;;7.00;2.12;;;;;;;11.58;53.33;100114.50;4364120;32;33638;-85
2021/05/10 03:27:03;;;;;;;2.33;2.08;;;;;;;11.58;53.67;100114.50;4376591;32;32733;-86
2021/05/10 03:29:31;;;;;;;4.70;1.92;;;;;;;11.45;54.26;100114.19;4351543;32;34449;-85
2021/05/10 03:31:58;;;;;;;2.70;2.12;;;;;;;11.29;55.02;100108.66;4364356;32;35771;-86
2021/05/10 03:34:26;;;;;;;5.80;2.35;;;;;;;11.40;54.67;100111.75;4373404;32;33211;-85
2021/05/10 03:36:53;;;;;;;4.62;2.03;;;;;;;11.21;54.70;100116.06;4363717;32;35089;-86
2021/05/10 03:39:21;;;;;;;6.10;2.42;;;;;;;11.49;53.93;100113.16;4376214;32;32531;-85
2021/05/10 03:41:48;;;;;;;6.95;1.75;;;;;;;11.69;53.33;100118.44;4364557;32;33762;-86
2021/05/10 03:44:16;;;;;;;3.42;1.92;;;;;;;11.65;53.34;100123.91;4376940;32;32810;-85
2021/05/10 03:46:43;;;;;;;2.90;1.80;;;;;;;11.88;52.66;100118.53;4372585;32;32691;-84
2021/05/10 03:49:11;;;;;;;5.85;1.90;;;;;;;12.28;51.62;100127.31;4373176;32;33558;-84
2021/05/10 03:51:38;;;;;;;3.95;2.05;;;;;;;12.33;51.88;100125.31;4358947;32;34712;-85
2021/05/10 03:54:06;;;;;;;3.15;2.00;;;;;;;12.45;51.59;100122.13;4375223;32;33369;-84
2021/05/10 03:56:33;;;;;;;4.68;1.67;;;;;;;12.75;50.75;100114.50;4375608;32;34385;-84
2021/05/10 03:59:01;;;;;;;2.87;1.95;;;;;;;12.86;50.54;100111.34;4370420;32;34581;-85
2021/05/10 04:01:28;;;;;;;3.83;2.25;;;;;;;12.90;50.71;100115.56;4377498;32;33302;-85
2021/05/10 04:04:12;;;;;;;4.12;1.60;;;;;;;12.90;50.65;100120.88;4373503;32;31125;-85
2021/05/10 04:10:22;;;;;;;4.90;2.20;;;;;;;13.13;50.30;100125.06;4382918;32;34580;-86
2021/05/10 04:15:22;;;;;;;3.00;1.52;;;;;;;13.36;49.69;100118.66;4384113;32;33555;-86
2021/05/10 04:17:50;;;;;;;5.30;1.80;;;;;;;13.72;49.06;100109.75;4384247;32;34356;-86
2021/05/10 04:20:17;;;;;;;4.62;2.00;;;;;;;13.48;49.54;100107.44;4372285;32;34332;-86
2021/05/10 04:22:45;;;;;;;3.25;2.08;;;;;;;13.53;49.75;100116.00;4384694;32;33356;-86
2021/05/10 04:25:13;;;;;;;2.22;1.62;;;;;;;13.97;48.50;100120.81;4384680;32;32966;-86
2021/05/10 04:27:40;;;;;;;3.60;2.08;;;;;;;14.15;48.54;100119.00;4385916;32;35647;-86
2021/05/10 04:30:08;;;;;;;2.53;1.70;;;;;;;13.98;48.05;100114.56;4374229;32;33029;-86
2021/05/10 04:32:36;;;;;;;2.62;1.67;;;;;;;13.94;48.25;100120.97;4358175;32;35220;-85
2021/05/10 04:35:05;;;;;;;3.70;1.80;;;;;;;13.76;48.91;100120.12;4369315;32;34226;-86
2021/05/10 04:37:34;;;;;;;4.03;1.75;;;;;;;14.24;48.42;100125.59;4372934;32;34930;-87
2021/05/10 04:40:02;;;;;;;2.90;1.85;;;;;;;14.58;46.97;100127.31;4371161;32;33775;-86
2021/05/10 04:42:30;;;;;;;3.83;2.08;;;;;;;14.90;46.41;100120.19;4373620;32;34477;-86
2021/05/10 04:44:58;;;;;;;4.05;1.95;;;;;;;14.81;46.64;100118.03;4381583;32;33009;-86
2021/05/10 04:47:36;;;;;;;2.25;1.62;;;;;;;14.97;47.20;100118.06;4383805;32;34272;-86
2021/05/10 04:50:05;;;;;;;7.25;1.98;;;;;;;14.77;46.59;100122.69;4372429;32;33405;-86
2021/05/10 04:52:33;;;;;;;7.35;2.10;;;;;;;15.04;46.26;100122.06;4370765;32;32505;-85
2021/05/10 04:55:02;;;;;;;7.87;2.28;;;;;;;15.09;45.96;100112.88;4360403;32;33994;-85
2021/05/10 04:57:29;;;;;;;4.55;2.05;;;;;;;14.71;46.92;100115.03;4356559;32;32401;-84
2021/05/10 04:59:57;;;;;;;3.37;1.87;;;;;;;14.85;46.78;100117.78;4369064;32;95638;-85
2021/05/10 05:02:25;;;;;;;6.12;2.22;;;;;;;14.99;46.66;100122.31;4371728;32;33412;-85
2021/05/10 05:04:53;;;;;;;4.47;2.53;;;;;;;14.79;46.99;100119.94;4371954;32;32547;-84
2021/05/10 05:07:21;;;;;;;5.55;1.92;;;;;;;14.59;48.01;100126.38;4383127;32;33632;-86
2021/05/10 05:09:48;;;;;;;4.43;1.73;;;;;;;14.85;46.75;100119.59;4372580;32;33647;-85
2021/05/10 05:12:16;;;;;;;2.55;2.12;;;;;;;14.91;46.82;100121.94;4375107;32;34201;-85
2021/05/10 05:14:43;;;;;;;5.53;1.90;;;;;;;15.06;46.87;100130.84;4372562;32;33105;-84
2021/05/10 05:17:11;;;;;;;3.33;1.50;;;;;;;15.03;45.53;100126.53;4373361;32;34593;-84
2021/05/10 05:19:38;;;;;;;4.12;1.80;;;;;;;15.29;44.89;100130.38;4372800;32;34265;-85
2021/05/10 05:22:07;;;;;;;2.92;1.85;;;;;;;15.65;44.56;100131.00;4359431;32;34437;-84
2021/05/10 05:24:35;;;;;;;4.87;1.62;;;;;;;15.57;44.16;100134.06;4370654;32;33743;-85
2021/05/10 05:27:02;;;;;;;2.15;1.60;;;;;;;15.80;43.35;100136.25;4370174;32;33727;-85
2021/05/10 05:29:30;;;;;;;4.50;1.70;;;;;;;16.34;42.80;100135.66;4386115;32;34617;-85
2021/05/10 05:31:59;;;;;;;8.55;1.90;;;;;;;16.07;43.50;100146.19;4372087;32;34786;-85
2021/05/10 05:34:26;;;;;;;4.65;1.80;;;;;;;15.96;42.95;100146.84;4371434;32;32998;-85
2021/05/10 05:36:54;;;;;;;4.93;1.73;;;;;;;16.13;42.48;100144.00;4384426;32;33574;-85
2021/05/10 05:39:21;;;;;;;5.70;2.20;;;;;;;16.45;41.73;100137.66;4375813;32;33546;-84
2021/05/10 05:41:51;;;;;;;3.00;2.10;;;;;;;15.91;43.39;100148.94;4383810;32;33740;-85
2021/05/10 05:44:18;;;;;;;6.85;2.10;;;;;;;16.33;42.05;100145.47;4382302;32;33143;-84
2021/05/10 05:46:48;;;;;;;5.93;2.00;;;;;;;16.43;42.14;100143.06;4382987;32;33278;-85
2021/05/10 05:49:17;;;;;;;4.87;1.87;;;;;;;16.46;41.74;100144.69;4373280;32;34421;-85
2021/05/10 05:51:46;;;;;;;6.80;1.90;;;;;;;16.35;42.02;100140.03;4374881;32;33271;-85
2021/05/10 05:54:13;;;;;;;2.97;1.80;;;;;;;16.12;43.29;100131.63;4373658;32;32581;-85
2021/05/10 05:56:41;;;;;;;4.85;2.22;;;;;;;16.79;42.25;100128.37;4370766;32;32729;-85
2021/05/10 05:59:08;;;;;;;5.40;1.95;;;;;;;16.80;41.86;100138.09;4382806;32;33491;-84
2021/05/10 06:01:35;;;;;;;3.53;2.53;;;;;;;16.61;41.79;100135.72;4369572;32;33475;-85
2021/05/10 06:04:04;;;;;;;3.92;2.00;;;;;;;17.02;41.60;100133.09;4373707;32;32950;-84
2021/05/10 06:06:31;;;;;;;7.50;2.00;;;;;;;16.98;42.01;100136.06;4386593;32;33444;-84
2021/05/10 06:08:59;;;;;;;2.35;1.70;;;;;;;16.92;42.04;100120.47;4374005;32;34321;-84
2021/05/10 06:11:26;;;;;;;5.78;3.12;;;;;;;16.98;41.10;100120.91;4368563;32;33455;-84
2021/05/10 06:13:54;;;;;;;11.50;2.10;;;;;;;16.72;41.78;100127.09;4372224;32;33978;-85
2021/05/10 06:16:21;;;;;;;4.47;2.65;;;;;;;17.31;41.74;100122.31;4375501;32;32192;-86
2021/05/10 06:18:48;;;;;;;3.00;1.90;;;;;;;16.79;42.01;100129.25;4360508;32;34190;-88
2021/05/10 06:21:16;;;;;;;8.05;2.05;;;;;;;17.15;41.53;100127.81;4383419;32;35075;-88
2021/05/10 06:23:43;;;;;;;3.12;1.80;;;;;;;17.31;41.17;100114.31;4372370;32;32259;-88
2021/05/10 06:26:11;;;;;;;11.20;2.08;;;;;;;17.76;40.88;100112.22;4384110;32;33309;-89
2021/05/10 06:28:38;;;;;;;3.08;1.75;;;;;;;18.01;40.18;100116.72;4382848;32;33192;-87
2021/05/10 06:31:07;;;;;;;7.15;2.20;;;;;;;17.99;40.19;100114.13;4371618;32;33771;-88
2021/05/10 06:33:35;;;;;;;6.53;1.95;;;;;;;18.12;39.46;100108.78;4371364;32;31245;-88
2021/05/10 06:36:02;;;;;;;5.15;2.00;;;;;;;17.68;39.90;100115.37;4372777;32;33775;-87
2021/05/10 06:38:30;;;;;;;6.55;1.90;;;;;;;17.90;40.43;100106.78;4370284;32;33221;-88
2021/05/10 06:40:58;;;;;;;2.72;1.55;;;;;;;18.10;39.66;100106.25;4384656;32;33277;-87
2021/05/10 06:43:25;;;;;;;6.25;2.03;;;;;;;18.27;39.07;100117.53;4371106;32;33197;-88
2021/05/10 06:45:52;;;;;;;2.03;1.50;;;;;;;18.27;39.46;100106.84;4375119;32;33586;-88
2021/05/10 06:48:28;;;;;;;3.35;1.55;;;;;;;18.44;38.85;100109.19;4377295;32;33378;-88
2021/05/10 06:50:56;;;;;;;4.85;1.87;;;;;;;18.83;39.81;100102.81;4358163;32;34191;-88
2021/05/10 06:53:24;;;;;;;3.22;1.67;;;;;;;18.95;39.06;100102.91;4359320;32;34106;-88
2021/05/10 06:55:52;;;;;;;2.72;1.48;;;;;;;18.99;38.51;100107.91;4385222;32;34795;-88
2021/05/10 06:58:21;;;;;;;9.32;1.67;;;;;;;19.15;38.68;100119.19;4359308;32;34392;-88
2021/05/10 07:00:53;;;;;;;4.37;1.05;;;;;;;19.78;37.24;100106.41;4371264;32;34121;-89
2021/05/10 07:03:21;;;;;;;5.10;1.37;;;;;;;19.41;37.17;100111.84;4370432;32;33772;-87
2021/05/10 07:05:49;;;;;;;4.03;1.00;;;;;;;19.23;36.71;100105.22;4359104;32;34089;-85
2021/05/10 07:08:18;;;;;;;2.17;1.50;;;;;;;19.28;35.75;100104.87;4370759;32;33167;-88
2021/05/10 07:10:50;;;;;;;2.55;1.10;;;;;;;19.52;35.92;100100.34;4384220;32;34401;-88
2021/05/10 07:13:21;;;;;;;2.80;1.23;;;;;;;19.66;35.70;100102.00;4371098;32;34964;-88
2021/05/10 07:15:52;;;;;;;1.73;1.35;;;;;;;19.86;37.16;100100.47;4360997;32;34370;-88
2021/05/10 07:18:20;;;;;;;2.42;1.20;;;;;;;20.01;35.02;100096.59;4360065;32;34183;-88
2021/05/10 07:20:48;;;;;;;2.33;1.30;;;;;;;19.72;36.21;100093.50;4367762;32;34049;-88
2021/05/10 07:23:16;;;;;;;4.22;1.37;;;;;;;19.62;36.23;100093.34;4365341;32;33595;-88
2021/05/10 07:25:45;;;;;;;3.62;1.02;;;;;;;19.66;36.39;100081.44;4379665;32;34358;-88
2021/05/10 07:28:16;;;;;;;1.85;1.45;;;;;;;20.04;35.99;100093.69;4382055;32;33618;-88
2021/05/10 07:30:45;;;;;;;2.47;1.17;;;;;;;20.38;35.67;100096.38;4382984;32;33757;-88
2021/05/10 07:33:12;;;;;;;2.20;1.30;;;;;;;19.90;34.91;100108.16;4358012;32;33790;-88
2021/05/10 07:35:40;;;;;;;5.93;1.30;;;;;;;20.39;36.77;100103.44;4354725;32;35631;-88
2021/05/10 07:38:07;;;;;;;3.08;1.58;;;;;;;20.30;35.51;100106.84;4371794;32;33757;-88
2021/05/10 07:40:35;;;;;;;3.53;1.62;;;;;;;20.18;35.09;100092.59;4358414;32;35562;-88
2021/05/10 07:43:02;;;;;;;3.15;1.37;;;;;;;20.24;35.55;100088.56;4380882;32;34163;-88
2021/05/10 07:45:31;;;;;;;6.10;2.15;;;;;;;20.57;34.63;100075.16;4369809;32;32209;-88
2021/05/10 07:47:58;;;;;;;5.95;1.90;;;;;;;20.73;34.28;100084.66;4353387;32;34377;-89
2021/05/10 07:50:26;;;;;;;3.42;1.20;;;;;;;21.13;35.88;100084.94;4382659;32;32870;-88
2021/05/10 07:52:54;;;;;;;5.65;1.15;;;;;;;21.05;33.59;100088.22;4372483;32;33376;-88
2021/05/10 07:55:22;;;;;;;4.85;1.25;;;;;;;21.05;34.92;100080.19;4383574;32;33480;-87
2021/05/10 07:57:51;;;;;;;2.95;1.27;;;;;;;21.43;33.51;100060.03;4372105;32;31784;-87
2021/05/10 08:00:35;;;;;;;4.70;1.15;;;;;;;21.02;34.30;100075.06;4360491;32;32764;-85
2021/05/10 08:03:12;;;;;;;4.82;2.03;;;;;;;21.25;33.92;100067.78;4365957;32;34262;-85
2021/05/10 08:05:40;;;;;;;5.97;1.50;;;;;;;21.07;34.62;100061.25;4354831;32;31862;-85
2021/05/10 08:08:09;;;;;;;5.75;1.67;;;;;;;21.24;34.30;100047.28;4360297;32;33597;-85
2021/05/10 08:10:37;;;;;;;2.40;1.15;;;;;;;21.62;33.71;100045.88;4373901;32;33913;-86
2021/05/10 08:13:04;;;;;;;2.75;1.42;;;;;;;21.59;33.50;100046.12;4377861;32;33545;-85
2021/05/10 08:15:33;;;;;;;4.60;1.70;;;;;;;21.46;33.34;100047.19;4374539;32;30313;-86
2021/05/10 08:18:00;;;;;;;7.10;1.27;;;;;;;21.49;32.75;100040.69;4369548;32;33563;-85
2021/05/10 08:20:43;;;;;;;2.80;1.23;;;;;;;21.46;34.06;100041.84;4362932;32;33465;-86
2021/05/10 08:23:12;;;;;;;3.00;1.50;;;;;;;22.05;33.62;100036.78;4362526;32;33722;-85
2021/05/10 08:25:41;;;;;;;3.47;1.33;;;;;;;21.79;32.32;100044.41;4360421;32;33676;-86
2021/05/10 08:28:09;;;;;;;5.00;1.20;;;;;;;21.98;32.23;100036.44;4374058;32;32856;-85
2021/05/10 08:30:37;;;;;;;5.18;1.12;;;;;;;22.10;32.45;100040.75;4363371;32;34893;-86
2021/05/10 08:33:05;;;;;;;4.30;1.67;;;;;;;22.25;31.75;100033.22;4378229;32;32816;-85
2021/05/10 08:35:32;;;;;;;3.30;1.45;;;;;;;21.54;33.65;100021.50;4377508;32;32556;-85
2021/05/10 08:38:01;;;;;;;8.32;1.80;;;;;;;22.07;33.69;100024.88;4372982;32;34135;-86
2021/05/10 08:40:29;;;;;;;5.87;1.42;;;;;;;21.86;33.27;100024.94;4365392;32;34207;-85
2021/05/10 08:42:58;;;;;;;5.65;1.70;;;;;;;22.39;32.37;100030.13;4349469;32;32957;-86
2021/05/10 08:45:27;;;;;;;1.77;1.30;;;;;;;22.68;31.52;100014.06;4344847;32;33158;-86
2021/05/10 08:47:59;;;;;;;5.25;2.03;;;;;;;23.34;32.00;100009.84;4367393;32;32559;-86
2021/05/10 08:50:27;;;;;;;2.78;1.52;;;;;;;23.27;31.42;100003.34;4357152;32;33722;-86
2021/05/10 08:52:54;;;;;;;1.80;1.23;;;;;;;22.85;30.51;100003.59;4355994;32;33369;-85
2021/05/10 08:55:31;;;;;;;6.22;1.45;;;;;;;22.92;31.05;99999.38;4341141;32;33783;-85
2021/05/10 08:58:07;;;;;;;5.53;1.25;;;;;;;23.17;29.32;99993.44;4362291;32;32554;-85
2021/05/10 09:00:52;;;;;;;4.72;1.33;;;;;;;23.36;30.38;100002.47;4362554;32;32832;-86
2021/05/10 09:03:19;;;;;;;4.05;1.92;;;;;;;23.58;31.37;100004.84;4361602;32;33712;-85
2021/05/10 09:05:51;;;;;;;4.05;1.12;;;;;;;23.59;30.29;99987.66;4345936;32;32956;-86
2021/05/10 09:08:18;;;;;;;3.55;1.85;;;;;;;23.87;28.84;99982.38;4364920;32;33757;-86
2021/05/10 09:11:30;;;;;;;4.55;2.12;;;;;;;23.77;29.06;99988.66;4360183;32;33578;-85
2021/05/10 09:13:58;;;;;;;3.33;1.27;;;;;;;24.04;28.87;99984.28;4360294;32;33123;-85
2021/05/10 09:16:26;;;;;;;3.80;1.67;;;;;;;23.69;29.38;99993.94;4375181;32;33520;-86
2021/05/10 09:18:59;;;;;;;4.28;1.40;;;;;;;23.81;28.77;99980.28;4372211;32;35545;-85
2021/05/10 09:21:30;;;;;;;3.17;1.48;;;;;;;24.11;29.58;99982.69;4358011;32;33435;-85
2021/05/10 09:24:21;;;;;;;5.87;1.58;;;;;;;24.21;28.45;99982.62;4373436;32;33267;-85
2021/05/10 09:27:16;;;;;;;5.25;1.67;;;;;;;23.61;29.72;99985.69;4363042;32;32115;-86
2021/05/10 09:29:43;;;;;;;4.50;1.37;;;;;;;23.95;28.68;99977.09;4361142;32;33761;-86
2021/05/10 09:32:25;;;;;;;4.05;1.55;;;;;;;24.24;27.95;99958.91;4359279;32;34548;-85
2021/05/10 09:35:18;;;;;;;6.57;1.50;;;;;;;23.98;30.36;99960.63;4359885;32;33477;-86
2021/05/10 09:38:02;;;;;;;8.65;1.40;;;;;;;24.43;28.28;99965.22;4371666;32;31440;-86
2021/05/10 09:40:51;;;;;;;3.28;1.50;;;;;;;24.55;28.74;99955.91;4368876;32;33571;-86
2021/05/10 09:43:26;;;;;;;3.55;1.58;;;;;;;24.15;29.06;99962.50;4356824;32;33700;-86
2021/05/10 09:45:57;;;;;;;2.67;1.77;;;;;;;24.66;28.65;99955.69;4360612;32;33270;-86
2021/05/10 09:48:27;;;;;;;2.95;1.02;;;;;;;24.04;28.87;99954.63;4346879;32;31920;-87
2021/05/10 09:51:21;;;;;;;5.85;1.40;;;;;;;24.26;28.87;99940.72;4370781;32;33683;-86
2021/05/10 09:53:54;;;;;;;2.15;1.25;;;;;;;24.10;28.83;99943.22;4372768;32;34641;-87
2021/05/10 09:56:32;;;;;;;4.72;1.40;;;;;;;24.12;29.66;99943.94;4360613;32;34381;-86
2021/05/10 09:59:01;;;;;;;5.95;1.55;;;;;;;24.44;32.27;99923.72;4374816;32;33499;-86
2021/05/10 10:01:45;;;;;;;9.32;1.67;;;;;;;24.64;27.26;99925.31;4378301;32;35625;-86
2021/05/10 10:04:19;;;;;;;2.75;1.50;;;;;;;24.68;29.64;99913.16;4384613;32;34599;-86
2021/05/10 10:06:47;;;;;;;6.37;1.80;;;;;;;24.51;28.77;99922.97;4387149;32;33153;-86
2021/05/10 10:09:15;;;;;;;4.12;1.55;;;;;;;24.64;27.15;99914.50;4362351;32;33547;-86
2021/05/10 10:11:42;;;;;;;1.80;1.20;;;;;;;24.55;28.73;99910.03;4390006;32;33553;-84
2021/05/10 10:14:10;;;;;;;3.62;1.48;;;;;;;24.99;27.17;99907.38;4373856;32;32530;-83
2021/05/10 10:16:38;;;;;;;3.67;1.45;;;;;;;25.39;26.01;99920.31;4387969;32;31373;-85
2021/05/10 10:19:07;;;;;;;3.33;1.30;;;;;;;25.42;28.12;99914.63;4373830;32;34478;-86
2021/05/10 10:21:53;;;;;;;3.45;1.90;;;;;;;25.68;27.84;99903.75;4378474;32;33424;-86
2021/05/10 10:24:20;;;;;;;11.73;1.65;;;;;;;25.87;27.55;99899.97;4389261;32;33661;-86
2021/05/10 10:27:10;;;;;;;6.55;1.30;;;;;;;26.20;30.21;99889.28;4374741;32;33221;-86
2021/05/10 10:29:41;;;;;;;13.45;1.70;;;;;;;25.92;26.55;99896.78;4375941;32;33753;-86
2021/05/10 10:32:09;;;;;;;2.25;1.55;;;;;;;26.10;26.47;99892.13;4387646;32;33451;-86
2021/05/10 10:34:41;;;;;;;4.57;1.60;;;;;;;26.30;25.26;99896.25;4378926;32;34658;-86
2021/05/10 10:37:09;;;;;;;3.33;1.70;;;;;;;25.97;26.77;99895.31;4366692;32;32355;-86
2021/05/10 10:39:37;;;;;;;7.40;1.65;;;;;;;26.10;25.99;99896.69;4365255;32;33536;-86
2021/05/10 10:42:06;;;;;;;4.25;1.08;;;;;;;26.50;27.98;99893.28;4366577;32;34091;-86
2021/05/10 10:44:58;;;;;;;8.18;1.27;;;;;;;26.43;27.14;99887.66;4389260;32;32213;-86
2021/05/10 10:47:47;;;;;;;1.83;1.40;;;;;;;26.59;25.44;99864.31;4376066;32;33839;-87
2021/05/10 10:50:23;;;;;;;4.28;1.90;;;;;;;26.60;26.37;99866.88;4386700;32;33766;-86
2021/05/10 10:52:55;;;;;;;4.62;1.20;;;;;;;26.65;25.53;99866.38;4371051;32;35531;-85
2021/05/10 10:55:33;;;;;;;4.00;1.50;;;;;;;26.98;25.23;99869.91;4389371;32;34090;-86
2021/05/10 10:58:22;;;;;;;4.47;1.33;;;;;;;27.56;25.78;99864.22;4385006;32;32960;-86
2021/05/10 11:00:55;;;;;;;10.10;1.65;;;;;;;27.70;24.38;99865.34;4374975;32;34390;-86
2021/05/10 11:03:23;;;;;;;5.45;1.45;;;;;;;27.66;25.27;99869.44;4363347;32;33740;-84
2021/05/10 11:05:51;;;;;;;3.37;1.50;;;;;;;27.91;24.56;99872.06;4352960;32;33358;-84
2021/05/10 11:08:43;;;;;;;7.87;2.20;;;;;;;27.48;23.42;99857.97;4349081;32;33272;-83
2021/05/10 11:11:26;;;;;;;2.80;1.25;;;;;;;27.56;22.20;99852.50;4363111;32;34623;-83
2021/05/10 11:13:53;;;;;;;5.12;1.15;;;;;;;26.87;25.06;99856.69;4350391;32;32451;-83
2021/05/10 11:16:50;;;;;;;3.62;1.27;;;;;;;27.75;24.50;99843.16;4363106;32;33277;-84
2021/05/10 11:19:37;;;;;;;3.12;1.25;;;;;;;27.80;22.13;99851.59;4360410;32;32740;-83
2021/05/10 11:22:32;;;;;;;3.75;1.40;;;;;;;28.05;24.79;99831.44;4346982;32;33662;-83
2021/05/10 11:25:39;;;;;;;8.90;1.20;;;;;;;27.92;22.39;99846.63;4334427;32;33915;-83
2021/05/10 11:28:25;;;;;;;6.45;1.40;;;;;;;28.12;22.99;99834.28;4360370;32;33351;-84
2021/05/10 11:31:02;;;;;;;2.92;1.30;;;;;;;28.07;22.70;99839.41;4360636;32;33457;-84
2021/05/10 11:33:55;;;;;;;5.85;1.30;;;;;;;28.32;21.30;99834.66;4356529;32;33279;-84
2021/05/10 11:36:24;;;;;;;3.70;1.02;;;;;;;28.11;21.82;99835.31;4360343;32;34483;-84
2021/05/10 11:38:51;;;;;;;1.92;1.20;;;;;;;27.97;22.60;99842.38;4348557;32;33410;-87
2021/05/10 11:41:50;;;;;;;5.95;1.30;;;;;;;28.33;22.38;99837.19;4344830;32;33173;-87
2021/05/10 11:44:17;;;;;;;5.10;1.20;;;;;;;27.84;21.63;99849.37;4331309;32;33431;-87
2021/05/10 11:46:50;;;;;;;2.47;1.15;;;;;;;27.89;22.98;99846.97;4359893;32;33392;-87
2021/05/10 11:49:24;;;;;;;3.50;1.55;;;;;;;28.02;22.73;99830.97;4348887;32;32838;-86
2021/05/10 11:51:52;;;;;;;4.65;1.20;;;;;;;27.84;23.82;99839.38;4358928;32;33558;-87
2021/05/10 11:54:20;;;;;;;4.22;1.30;;;;;;;28.08;21.77;99830.25;4347964;32;32919;-87